sensor_id;sensor_type;location;lat;lon;timestamp;P1;durP1;ratioP1;P2;durP2;ratioP2
59458;SDS011;45269;43.568;22.244;2023-07-28T00:01:19;4.30;;;4.00;;
59458;SDS011;45269;43.568;22.244;2023-07-28T00:03:45;4.45;;;4.05;;
59458;SDS011;45269;43.568;22.244;2023-07-28T00:06:10;4.38;;;4.07;;
59458;SDS011;45269;43.568;22.244;2023-07-28T00:08:35;4.90;;;4.50;;
59458;SDS011;45269;43.568;22.244;2023-07-28T00:11:01;3.90;;;3.60;;
59458;SDS011;45269;43.568;22.244;2023-07-28T00:13:26;4.25;;;3.95;;
59458;SDS011;45269;43.568;22.244;2023-07-28T00:15:51;4.60;;;4.30;;
59458;SDS011;45269;43.568;22.244;2023-07-28T00:18:17;4.05;;;3.75;;
59458;SDS011;45269;43.568;22.244;2023-07-28T00:20:43;4.10;;;3.72;;
59458;SDS011;45269;43.568;22.244;2023-07-28T00:23:09;4.90;;;4.50;;
59458;SDS011;45269;43.568;22.244;2023-07-28T00:25:34;4.28;;;3.97;;
59458;SDS011;45269;43.568;22.244;2023-07-28T00:27:59;5.45;;;4.10;;
59458;SDS011;45269;43.568;22.244;2023-07-28T00:30:25;4.22;;;3.83;;
59458;SDS011;45269;43.568;22.244;2023-07-28T00:32:50;4.50;;;4.10;;
59458;SDS011;45269;43.568;22.244;2023-07-28T00:35:16;4.22;;;3.92;;
59458;SDS011;45269;43.568;22.244;2023-07-28T00:37:41;4.20;;;3.95;;
59458;SDS011;45269;43.568;22.244;2023-07-28T00:40:06;4.72;;;4.13;;
59458;SDS011;45269;43.568;22.244;2023-07-28T00:42:32;4.28;;;3.88;;
59458;SDS011;45269;43.568;22.244;2023-07-28T00:44:57;4.53;;;4.13;;
59458;SDS011;45269;43.568;22.244;2023-07-28T00:47:23;4.57;;;3.88;;
59458;SDS011;45269;43.568;22.244;2023-07-28T00:49:48;4.00;;;3.63;;
59458;SDS011;45269;43.568;22.244;2023-07-28T00:52:13;4.13;;;3.72;;
59458;SDS011;45269;43.568;22.244;2023-07-28T00:54:39;5.65;;;4.05;;
59458;SDS011;45269;43.568;22.244;2023-07-28T00:57:04;4.50;;;4.10;;
59458;SDS011;45269;43.568;22.244;2023-07-28T00:59:30;4.45;;;4.05;;
59458;SDS011;45269;43.568;22.244;2023-07-28T01:01:55;5.43;;;3.95;;
59458;SDS011;45269;43.568;22.244;2023-07-28T01:04:21;4.07;;;3.78;;
59458;SDS011;45269;43.568;22.244;2023-07-28T01:06:48;4.45;;;3.85;;
59458;SDS011;45269;43.568;22.244;2023-07-28T01:09:16;4.40;;;4.03;;
59458;SDS011;45269;43.568;22.244;2023-07-28T01:11:56;4.53;;;4.13;;
59458;SDS011;45269;43.568;22.244;2023-07-28T01:14:21;4.22;;;3.92;;
59458;SDS011;45269;43.568;22.244;2023-07-28T01:16:47;4.10;;;3.80;;
59458;SDS011;45269;43.568;22.244;2023-07-28T01:19:12;4.72;;;4.32;;
59458;SDS011;45269;43.568;22.244;2023-07-28T01:21:40;4.88;;;4.47;;
59458;SDS011;45269;43.568;22.244;2023-07-28T01:26:40;4.20;;;3.80;;
59458;SDS011;45269;43.568;22.244;2023-07-28T01:29:06;4.93;;;3.75;;
59458;SDS011;45269;43.568;22.244;2023-07-28T01:31:31;4.60;;;4.20;;
59458;SDS011;45269;43.568;22.244;2023-07-28T01:33:57;4.30;;;4.00;;
59458;SDS011;45269;43.568;22.244;2023-07-28T01:36:22;4.20;;;3.83;;
59458;SDS011;45269;43.568;22.244;2023-07-28T01:38:48;4.88;;;4.28;;
59458;SDS011;45269;43.568;22.244;2023-07-28T01:41:13;4.60;;;4.20;;
59458;SDS011;45269;43.568;22.244;2023-07-28T01:43:38;4.55;;;4.10;;
59458;SDS011;45269;43.568;22.244;2023-07-28T01:46:04;4.82;;;4.35;;
59458;SDS011;45269;43.568;22.244;2023-07-28T01:48:29;4.88;;;4.55;;
59458;SDS011;45269;43.568;22.244;2023-07-28T01:50:54;5.22;;;4.43;;
59458;SDS011;45269;43.568;22.244;2023-07-28T01:53:20;4.60;;;4.20;;
59458;SDS011;45269;43.568;22.244;2023-07-28T01:55:45;4.28;;;3.88;;
59458;SDS011;45269;43.568;22.244;2023-07-28T01:58:11;4.88;;;3.83;;
59458;SDS011;45269;43.568;22.244;2023-07-28T02:00:36;4.40;;;4.10;;
59458;SDS011;45269;43.568;22.244;2023-07-28T02:03:01;4.90;;;4.50;;
59458;SDS011;45269;43.568;22.244;2023-07-28T02:05:28;4.70;;;4.30;;
59458;SDS011;45269;43.568;22.244;2023-07-28T02:07:54;4.75;;;4.35;;
59458;SDS011;45269;43.568;22.244;2023-07-28T02:10:19;4.57;;;4.15;;
59458;SDS011;45269;43.568;22.244;2023-07-28T02:12:45;4.15;;;3.85;;
59458;SDS011;45269;43.568;22.244;2023-07-28T02:15:11;4.18;;;3.88;;
59458;SDS011;45269;43.568;22.244;2023-07-28T02:17:38;4.15;;;3.85;;
59458;SDS011;45269;43.568;22.244;2023-07-28T02:20:04;4.90;;;4.40;;
59458;SDS011;45269;43.568;22.244;2023-07-28T02:22:29;4.60;;;4.20;;
59458;SDS011;45269;43.568;22.244;2023-07-28T02:24:55;5.07;;;4.10;;
59458;SDS011;45269;43.568;22.244;2023-07-28T02:27:20;5.80;;;4.40;;
59458;SDS011;45269;43.568;22.244;2023-07-28T02:29:45;6.75;;;4.32;;
59458;SDS011;45269;43.568;22.244;2023-07-28T02:32:11;4.55;;;4.25;;
59458;SDS011;45269;43.568;22.244;2023-07-28T02:34:36;4.68;;;4.28;;
59458;SDS011;45269;43.568;22.244;2023-07-28T02:37:02;4.57;;;4.28;;
59458;SDS011;45269;43.568;22.244;2023-07-28T02:39:27;4.68;;;4.28;;
59458;SDS011;45269;43.568;22.244;2023-07-28T02:41:53;4.88;;;4.40;;
59458;SDS011;45269;43.568;22.244;2023-07-28T02:44:18;4.90;;;4.50;;
59458;SDS011;45269;43.568;22.244;2023-07-28T02:46:43;4.60;;;4.20;;
59458;SDS011;45269;43.568;22.244;2023-07-28T02:49:09;4.70;;;4.40;;
59458;SDS011;45269;43.568;22.244;2023-07-28T02:51:34;4.35;;;3.92;;
59458;SDS011;45269;43.568;22.244;2023-07-28T02:53:59;4.88;;;4.47;;
59458;SDS011;45269;43.568;22.244;2023-07-28T02:56:25;4.90;;;4.55;;
59458;SDS011;45269;43.568;22.244;2023-07-28T02:58:50;5.35;;;4.57;;
59458;SDS011;45269;43.568;22.244;2023-07-28T03:01:16;4.88;;;4.47;;
59458;SDS011;45269;43.568;22.244;2023-07-28T03:03:42;4.38;;;4.07;;
59458;SDS011;45269;43.568;22.244;2023-07-28T03:06:07;5.00;;;4.60;;
59458;SDS011;45269;43.568;22.244;2023-07-28T03:08:32;4.72;;;4.32;;
59458;SDS011;45269;43.568;22.244;2023-07-28T03:10:58;5.18;;;4.75;;
59458;SDS011;45269;43.568;22.244;2023-07-28T03:13:23;4.70;;;4.40;;
59458;SDS011;45269;43.568;22.244;2023-07-28T03:15:49;5.95;;;4.20;;
59458;SDS011;45269;43.568;22.244;2023-07-28T03:18:14;4.95;;;4.55;;
59458;SDS011;45269;43.568;22.244;2023-07-28T03:20:39;5.07;;;4.68;;
59458;SDS011;45269;43.568;22.244;2023-07-28T03:23:05;4.88;;;4.47;;
59458;SDS011;45269;43.568;22.244;2023-07-28T03:25:30;4.40;;;4.07;;
59458;SDS011;45269;43.568;22.244;2023-07-28T03:27:55;5.47;;;4.97;;
59458;SDS011;45269;43.568;22.244;2023-07-28T03:30:21;4.57;;;4.05;;
59458;SDS011;45269;43.568;22.244;2023-07-28T03:32:46;4.38;;;3.95;;
59458;SDS011;45269;43.568;22.244;2023-07-28T03:35:11;4.30;;;4.00;;
59458;SDS011;45269;43.568;22.244;2023-07-28T03:37:38;4.50;;;4.20;;
59458;SDS011;45269;43.568;22.244;2023-07-28T03:40:03;4.97;;;4.47;;
59458;SDS011;45269;43.568;22.244;2023-07-28T03:42:28;4.53;;;4.13;;
59458;SDS011;45269;43.568;22.244;2023-07-28T03:44:54;4.55;;;4.15;;
59458;SDS011;45269;43.568;22.244;2023-07-28T03:47:19;4.65;;;4.25;;
59458;SDS011;45269;43.568;22.244;2023-07-28T03:49:45;5.07;;;4.57;;
59458;SDS011;45269;43.568;22.244;2023-07-28T03:52:10;6.25;;;4.60;;
59458;SDS011;45269;43.568;22.244;2023-07-28T03:54:35;4.80;;;4.40;;
59458;SDS011;45269;43.568;22.244;2023-07-28T03:57:00;5.43;;;4.60;;
59458;SDS011;45269;43.568;22.244;2023-07-28T03:59:26;5.88;;;5.05;;
59458;SDS011;45269;43.568;22.244;2023-07-28T04:01:51;5.93;;;5.03;;
59458;SDS011;45269;43.568;22.244;2023-07-28T04:04:17;5.03;;;4.50;;
59458;SDS011;45269;43.568;22.244;2023-07-28T04:06:44;5.22;;;4.82;;
59458;SDS011;45269;43.568;22.244;2023-07-28T04:09:10;4.80;;;4.47;;
59458;SDS011;45269;43.568;22.244;2023-07-28T04:11:36;5.05;;;4.60;;
59458;SDS011;45269;43.568;22.244;2023-07-28T04:14:02;5.05;;;4.68;;
59458;SDS011;45269;43.568;22.244;2023-07-28T04:16:27;5.40;;;4.97;;
59458;SDS011;45269;43.568;22.244;2023-07-28T04:18:53;5.57;;;5.15;;
59458;SDS011;45269;43.568;22.244;2023-07-28T04:21:18;5.97;;;5.20;;
59458;SDS011;45269;43.568;22.244;2023-07-28T04:23:43;6.10;;;5.50;;
59458;SDS011;45269;43.568;22.244;2023-07-28T04:26:09;7.45;;;6.75;;
59458;SDS011;45269;43.568;22.244;2023-07-28T04:28:34;22.88;;;17.58;;
59458;SDS011;45269;43.568;22.244;2023-07-28T04:30:59;41.00;;;28.88;;
59458;SDS011;45269;43.568;22.244;2023-07-28T04:33:26;49.95;;;35.75;;
59458;SDS011;45269;43.568;22.244;2023-07-28T04:35:51;29.42;;;22.17;;
59458;SDS011;45269;43.568;22.244;2023-07-28T04:38:17;21.30;;;15.00;;
59458;SDS011;45269;43.568;22.244;2023-07-28T04:40:43;19.70;;;14.95;;
59458;SDS011;45269;43.568;22.244;2023-07-28T04:43:08;36.35;;;27.27;;
59458;SDS011;45269;43.568;22.244;2023-07-28T04:45:35;37.20;;;26.95;;
59458;SDS011;45269;43.568;22.244;2023-07-28T04:48:00;43.30;;;29.27;;
59458;SDS011;45269;43.568;22.244;2023-07-28T04:50:26;50.75;;;32.10;;
59458;SDS011;45269;43.568;22.244;2023-07-28T04:52:51;69.68;;;47.25;;
59458;SDS011;45269;43.568;22.244;2023-07-28T04:55:16;53.65;;;37.80;;
59458;SDS011;45269;43.568;22.244;2023-07-28T04:57:42;42.75;;;29.73;;
59458;SDS011;45269;43.568;22.244;2023-07-28T05:00:07;41.15;;;29.02;;
59458;SDS011;45269;43.568;22.244;2023-07-28T05:02:33;37.95;;;29.13;;
59458;SDS011;45269;43.568;22.244;2023-07-28T05:04:59;34.97;;;24.48;;
59458;SDS011;45269;43.568;22.244;2023-07-28T05:07:24;30.77;;;23.33;;
59458;SDS011;45269;43.568;22.244;2023-07-28T05:09:50;28.63;;;20.60;;
59458;SDS011;45269;43.568;22.244;2023-07-28T05:12:15;23.45;;;17.17;;
59458;SDS011;45269;43.568;22.244;2023-07-28T05:14:40;26.30;;;17.70;;
59458;SDS011;45269;43.568;22.244;2023-07-28T05:17:06;23.05;;;16.80;;
59458;SDS011;45269;43.568;22.244;2023-07-28T05:19:31;19.33;;;14.23;;
59458;SDS011;45269;43.568;22.244;2023-07-28T05:21:57;17.35;;;13.13;;
59458;SDS011;45269;43.568;22.244;2023-07-28T05:24:22;15.40;;;12.18;;
59458;SDS011;45269;43.568;22.244;2023-07-28T05:26:48;11.55;;;10.45;;
59458;SDS011;45269;43.568;22.244;2023-07-28T05:29:13;9.45;;;8.55;;
59458;SDS011;45269;43.568;22.244;2023-07-28T05:31:38;9.07;;;8.18;;
59458;SDS011;45269;43.568;22.244;2023-07-28T05:34:04;8.35;;;7.63;;
59458;SDS011;45269;43.568;22.244;2023-07-28T05:36:29;8.68;;;7.70;;
59458;SDS011;45269;43.568;22.244;2023-07-28T05:38:54;8.10;;;7.32;;
59458;SDS011;45269;43.568;22.244;2023-07-28T05:41:21;8.65;;;7.80;;
59458;SDS011;45269;43.568;22.244;2023-07-28T05:43:46;10.07;;;7.30;;
59458;SDS011;45269;43.568;22.244;2023-07-28T05:46:12;6.63;;;6.03;;
59458;SDS011;45269;43.568;22.244;2023-07-28T05:48:37;7.10;;;6.38;;
59458;SDS011;45269;43.568;22.244;2023-07-28T05:51:03;8.15;;;7.22;;
59458;SDS011;45269;43.568;22.244;2023-07-28T05:53:28;7.68;;;6.72;;
59458;SDS011;45269;43.568;22.244;2023-07-28T05:55:53;6.45;;;5.85;;
59458;SDS011;45269;43.568;22.244;2023-07-28T05:58:19;6.80;;;6.07;;
59458;SDS011;45269;43.568;22.244;2023-07-28T06:00:44;7.75;;;6.28;;
59458;SDS011;45269;43.568;22.244;2023-07-28T06:03:09;7.95;;;6.75;;
59458;SDS011;45269;43.568;22.244;2023-07-28T06:05:35;6.68;;;5.97;;
59458;SDS011;45269;43.568;22.244;2023-07-28T06:08:00;6.07;;;5.47;;
59458;SDS011;45269;43.568;22.244;2023-07-28T06:10:26;7.25;;;5.68;;
59458;SDS011;45269;43.568;22.244;2023-07-28T06:12:51;8.63;;;6.35;;
59458;SDS011;45269;43.568;22.244;2023-07-28T06:15:16;7.80;;;6.68;;
59458;SDS011;45269;43.568;22.244;2023-07-28T06:17:42;9.25;;;6.15;;
59458;SDS011;45269;43.568;22.244;2023-07-28T06:20:07;7.50;;;6.53;;
59458;SDS011;45269;43.568;22.244;2023-07-28T06:22:33;6.82;;;5.70;;
59458;SDS011;45269;43.568;22.244;2023-07-28T06:24:58;7.40;;;6.15;;
59458;SDS011;45269;43.568;22.244;2023-07-28T06:27:23;8.13;;;6.10;;
59458;SDS011;45269;43.568;22.244;2023-07-28T06:29:49;6.45;;;5.40;;
59458;SDS011;45269;43.568;22.244;2023-07-28T06:32:14;9.43;;;5.63;;
59458;SDS011;45269;43.568;22.244;2023-07-28T06:34:39;6.28;;;5.45;;
59458;SDS011;45269;43.568;22.244;2023-07-28T06:37:05;6.63;;;5.75;;
59458;SDS011;45269;43.568;22.244;2023-07-28T06:39:30;5.18;;;4.53;;
59458;SDS011;45269;43.568;22.244;2023-07-28T06:41:55;4.75;;;4.30;;
59458;SDS011;45269;43.568;22.244;2023-07-28T06:44:21;5.68;;;4.28;;
59458;SDS011;45269;43.568;22.244;2023-07-28T06:46:46;4.72;;;4.32;;
59458;SDS011;45269;43.568;22.244;2023-07-28T06:49:12;5.07;;;4.45;;
59458;SDS011;45269;43.568;22.244;2023-07-28T06:51:38;4.20;;;3.85;;
59458;SDS011;45269;43.568;22.244;2023-07-28T06:54:03;5.55;;;4.20;;
59458;SDS011;45269;43.568;22.244;2023-07-28T06:56:29;5.88;;;4.35;;
59458;SDS011;45269;43.568;22.244;2023-07-28T06:58:54;5.47;;;4.47;;
59458;SDS011;45269;43.568;22.244;2023-07-28T07:01:19;5.20;;;4.15;;
59458;SDS011;45269;43.568;22.244;2023-07-28T07:03:47;3.95;;;3.58;;
59458;SDS011;45269;43.568;22.244;2023-07-28T07:06:12;8.25;;;5.65;;
59458;SDS011;45269;43.568;22.244;2023-07-28T07:08:37;3.80;;;3.50;;
59458;SDS011;45269;43.568;22.244;2023-07-28T07:11:03;3.78;;;3.42;;
59458;SDS011;45269;43.568;22.244;2023-07-28T07:13:30;4.30;;;3.90;;
59458;SDS011;45269;43.568;22.244;2023-07-28T07:15:56;4.10;;;3.70;;
59458;SDS011;45269;43.568;22.244;2023-07-28T07:18:21;3.90;;;3.60;;
59458;SDS011;45269;43.568;22.244;2023-07-28T07:20:46;3.75;;;3.22;;
59458;SDS011;45269;43.568;22.244;2023-07-28T07:23:12;4.85;;;3.13;;
59458;SDS011;45269;43.568;22.244;2023-07-28T07:25:37;4.15;;;3.75;;
59458;SDS011;45269;43.568;22.244;2023-07-28T07:28:03;4.72;;;3.65;;
59458;SDS011;45269;43.568;22.244;2023-07-28T07:30:28;3.85;;;3.15;;
59458;SDS011;45269;43.568;22.244;2023-07-28T07:32:54;5.22;;;3.38;;
59458;SDS011;45269;43.568;22.244;2023-07-28T07:35:19;4.30;;;3.20;;
59458;SDS011;45269;43.568;22.244;2023-07-28T07:37:44;3.47;;;3.28;;
59458;SDS011;45269;43.568;22.244;2023-07-28T07:40:10;3.88;;;3.22;;
59458;SDS011;45269;43.568;22.244;2023-07-28T07:42:43;3.60;;;2.90;;
59458;SDS011;45269;43.568;22.244;2023-07-28T07:45:12;3.20;;;2.90;;
59458;SDS011;45269;43.568;22.244;2023-07-28T07:47:39;3.10;;;2.80;;
59458;SDS011;45269;43.568;22.244;2023-07-28T07:50:05;3.13;;;2.85;;
59458;SDS011;45269;43.568;22.244;2023-07-28T07:52:30;3.90;;;2.88;;
59458;SDS011;45269;43.568;22.244;2023-07-28T07:54:56;2.75;;;2.53;;
59458;SDS011;45269;43.568;22.244;2023-07-28T07:57:21;3.95;;;3.05;;
59458;SDS011;45269;43.568;22.244;2023-07-28T07:59:46;3.92;;;3.10;;
59458;SDS011;45269;43.568;22.244;2023-07-28T08:02:12;3.13;;;2.83;;
59458;SDS011;45269;43.568;22.244;2023-07-28T08:04:37;3.58;;;2.80;;
59458;SDS011;45269;43.568;22.244;2023-07-28T08:07:02;3.10;;;2.80;;
59458;SDS011;45269;43.568;22.244;2023-07-28T08:09:30;3.78;;;3.30;;
59458;SDS011;45269;43.568;22.244;2023-07-28T08:11:55;2.78;;;2.50;;
59458;SDS011;45269;43.568;22.244;2023-07-28T08:14:21;3.15;;;2.85;;
59458;SDS011;45269;43.568;22.244;2023-07-28T08:16:46;3.53;;;3.13;;
59458;SDS011;45269;43.568;22.244;2023-07-28T08:19:12;4.30;;;2.80;;
59458;SDS011;45269;43.568;22.244;2023-07-28T08:21:37;3.13;;;2.72;;
59458;SDS011;45269;43.568;22.244;2023-07-28T08:24:03;2.60;;;2.40;;
59458;SDS011;45269;43.568;22.244;2023-07-28T08:26:29;2.72;;;2.53;;
59458;SDS011;45269;43.568;22.244;2023-07-28T08:28:54;3.80;;;2.50;;
59458;SDS011;45269;43.568;22.244;2023-07-28T08:31:19;4.45;;;2.95;;
59458;SDS011;45269;43.568;22.244;2023-07-28T08:33:45;3.85;;;2.65;;
59458;SDS011;45269;43.568;22.244;2023-07-28T08:36:11;4.80;;;2.95;;
59458;SDS011;45269;43.568;22.244;2023-07-28T08:38:36;6.70;;;2.42;;
59458;SDS011;45269;43.568;22.244;2023-07-28T08:41:02;2.63;;;2.42;;
59458;SDS011;45269;43.568;22.244;2023-07-28T08:43:28;2.65;;;2.40;;
59458;SDS011;45269;43.568;22.244;2023-07-28T08:45:53;3.55;;;2.35;;
59458;SDS011;45269;43.568;22.244;2023-07-28T08:48:19;2.40;;;2.20;;
59458;SDS011;45269;43.568;22.244;2023-07-28T08:50:45;3.70;;;2.63;;
59458;SDS011;45269;43.568;22.244;2023-07-28T08:53:10;3.13;;;2.20;;
59458;SDS011;45269;43.568;22.244;2023-07-28T08:55:35;2.58;;;2.28;;
59458;SDS011;45269;43.568;22.244;2023-07-28T08:58:14;2.75;;;2.30;;
59458;SDS011;45269;43.568;22.244;2023-07-28T09:00:40;3.42;;;1.98;;
59458;SDS011;45269;43.568;22.244;2023-07-28T09:03:08;4.78;;;2.53;;
59458;SDS011;45269;43.568;22.244;2023-07-28T09:05:33;2.65;;;2.45;;
59458;SDS011;45269;43.568;22.244;2023-07-28T09:07:59;2.20;;;2.08;;
59458;SDS011;45269;43.568;22.244;2023-07-28T09:10:24;2.50;;;2.30;;
59458;SDS011;45269;43.568;22.244;2023-07-28T09:12:50;2.00;;;1.90;;
59458;SDS011;45269;43.568;22.244;2023-07-28T09:15:15;2.75;;;2.25;;
59458;SDS011;45269;43.568;22.244;2023-07-28T09:17:44;2.40;;;2.20;;
59458;SDS011;45269;43.568;22.244;2023-07-28T09:20:12;2.22;;;1.90;;
59458;SDS011;45269;43.568;22.244;2023-07-28T09:22:38;2.35;;;2.15;;
59458;SDS011;45269;43.568;22.244;2023-07-28T09:25:14;2.70;;;2.15;;
59458;SDS011;45269;43.568;22.244;2023-07-28T09:27:39;2.60;;;2.40;;
59458;SDS011;45269;43.568;22.244;2023-07-28T09:30:05;2.72;;;2.22;;
59458;SDS011;45269;43.568;22.244;2023-07-28T09:32:32;2.55;;;2.35;;
59458;SDS011;45269;43.568;22.244;2023-07-28T09:35:08;4.70;;;2.05;;
59458;SDS011;45269;43.568;22.244;2023-07-28T09:37:35;2.42;;;2.25;;
59458;SDS011;45269;43.568;22.244;2023-07-28T09:40:02;2.42;;;2.22;;
59458;SDS011;45269;43.568;22.244;2023-07-28T09:42:30;1.98;;;1.88;;
59458;SDS011;45269;43.568;22.244;2023-07-28T09:44:55;3.33;;;2.50;;
59458;SDS011;45269;43.568;22.244;2023-07-28T09:47:20;3.47;;;2.55;;
59458;SDS011;45269;43.568;22.244;2023-07-28T09:49:46;6.95;;;2.63;;
59458;SDS011;45269;43.568;22.244;2023-07-28T09:52:13;3.50;;;2.38;;
59458;SDS011;45269;43.568;22.244;2023-07-28T09:54:41;2.42;;;2.22;;
59458;SDS011;45269;43.568;22.244;2023-07-28T09:57:14;2.55;;;2.35;;
59458;SDS011;45269;43.568;22.244;2023-07-28T09:59:44;2.65;;;2.10;;
59458;SDS011;45269;43.568;22.244;2023-07-28T10:02:10;2.45;;;2.25;;
59458;SDS011;45269;43.568;22.244;2023-07-28T10:04:35;3.08;;;2.50;;
59458;SDS011;45269;43.568;22.244;2023-07-28T10:07:01;3.88;;;2.53;;
59458;SDS011;45269;43.568;22.244;2023-07-28T10:09:27;2.65;;;2.42;;
59458;SDS011;45269;43.568;22.244;2023-07-28T10:11:53;2.40;;;2.20;;
59458;SDS011;45269;43.568;22.244;2023-07-28T10:14:25;2.20;;;2.10;;
59458;SDS011;45269;43.568;22.244;2023-07-28T10:16:52;2.63;;;2.00;;
59458;SDS011;45269;43.568;22.244;2023-07-28T10:19:21;3.67;;;2.75;;
59458;SDS011;45269;43.568;22.244;2023-07-28T10:21:46;2.35;;;2.22;;
59458;SDS011;45269;43.568;22.244;2023-07-28T10:24:11;2.10;;;1.90;;
59458;SDS011;45269;43.568;22.244;2023-07-28T10:26:38;1.95;;;1.85;;
59458;SDS011;45269;43.568;22.244;2023-07-28T10:29:16;2.30;;;2.05;;
59458;SDS011;45269;43.568;22.244;2023-07-28T10:31:59;2.78;;;1.95;;
59458;SDS011;45269;43.568;22.244;2023-07-28T10:34:24;5.07;;;2.15;;
59458;SDS011;45269;43.568;22.244;2023-07-28T10:36:59;2.20;;;2.00;;
59458;SDS011;45269;43.568;22.244;2023-07-28T10:39:24;2.13;;;1.80;;
59458;SDS011;45269;43.568;22.244;2023-07-28T10:42:06;3.03;;;2.15;;
59458;SDS011;45269;43.568;22.244;2023-07-28T10:44:34;2.17;;;2.08;;
59458;SDS011;45269;43.568;22.244;2023-07-28T10:47:00;2.17;;;2.03;;
59458;SDS011;45269;43.568;22.244;2023-07-28T10:49:25;3.63;;;2.30;;
59458;SDS011;45269;43.568;22.244;2023-07-28T10:51:51;2.40;;;2.20;;
59458;SDS011;45269;43.568;22.244;2023-07-28T10:54:16;2.20;;;1.92;;
59458;SDS011;45269;43.568;22.244;2023-07-28T10:56:45;3.70;;;2.10;;
59458;SDS011;45269;43.568;22.244;2023-07-28T10:59:10;2.28;;;2.08;;
59458;SDS011;45269;43.568;22.244;2023-07-28T11:01:36;2.55;;;2.05;;
59458;SDS011;45269;43.568;22.244;2023-07-28T11:04:20;2.55;;;2.35;;
59458;SDS011;45269;43.568;22.244;2023-07-28T11:06:49;2.30;;;2.10;;
59458;SDS011;45269;43.568;22.244;2023-07-28T11:09:16;2.33;;;2.20;;
59458;SDS011;45269;43.568;22.244;2023-07-28T11:11:42;1.92;;;1.83;;
59458;SDS011;45269;43.568;22.244;2023-07-28T11:14:08;2.10;;;2.00;;
59458;SDS011;45269;43.568;22.244;2023-07-28T11:16:35;3.38;;;2.25;;
59458;SDS011;45269;43.568;22.244;2023-07-28T11:19:01;2.40;;;2.20;;
59458;SDS011;45269;43.568;22.244;2023-07-28T11:21:27;1.85;;;1.75;;
59458;SDS011;45269;43.568;22.244;2023-07-28T11:23:53;2.30;;;2.10;;
59458;SDS011;45269;43.568;22.244;2023-07-28T11:26:19;2.53;;;1.77;;
59458;SDS011;45269;43.568;22.244;2023-07-28T11:28:45;2.20;;;1.80;;
59458;SDS011;45269;43.568;22.244;2023-07-28T11:31:11;5.28;;;2.47;;
59458;SDS011;45269;43.568;22.244;2023-07-28T11:33:36;2.00;;;1.90;;
59458;SDS011;45269;43.568;22.244;2023-07-28T11:36:02;2.85;;;1.90;;
59458;SDS011;45269;43.568;22.244;2023-07-28T11:38:27;2.20;;;2.00;;
59458;SDS011;45269;43.568;22.244;2023-07-28T11:40:54;2.88;;;2.10;;
59458;SDS011;45269;43.568;22.244;2023-07-28T11:43:21;2.17;;;2.08;;
59458;SDS011;45269;43.568;22.244;2023-07-28T11:45:47;1.90;;;1.80;;
59458;SDS011;45269;43.568;22.244;2023-07-28T11:48:12;2.40;;;2.20;;
59458;SDS011;45269;43.568;22.244;2023-07-28T11:50:40;2.03;;;1.83;;
59458;SDS011;45269;43.568;22.244;2023-07-28T11:53:06;2.95;;;2.03;;
59458;SDS011;45269;43.568;22.244;2023-07-28T11:55:33;4.78;;;2.20;;
59458;SDS011;45269;43.568;22.244;2023-07-28T11:57:58;2.00;;;1.90;;
59458;SDS011;45269;43.568;22.244;2023-07-28T12:00:36;2.85;;;2.38;;
59458;SDS011;45269;43.568;22.244;2023-07-28T12:03:06;2.30;;;2.10;;
59458;SDS011;45269;43.568;22.244;2023-07-28T12:05:34;4.78;;;2.30;;
59458;SDS011;45269;43.568;22.244;2023-07-28T12:08:00;2.67;;;2.45;;
59458;SDS011;45269;43.568;22.244;2023-07-28T12:10:25;2.10;;;2.00;;
59458;SDS011;45269;43.568;22.244;2023-07-28T12:12:51;4.35;;;2.20;;
59458;SDS011;45269;43.568;22.244;2023-07-28T12:15:20;2.17;;;2.03;;
59458;SDS011;45269;43.568;22.244;2023-07-28T12:18:06;2.17;;;2.00;;
59458;SDS011;45269;43.568;22.244;2023-07-28T12:20:38;3.47;;;2.42;;
59458;SDS011;45269;43.568;22.244;2023-07-28T12:23:04;3.25;;;2.13;;
59458;SDS011;45269;43.568;22.244;2023-07-28T12:25:30;2.65;;;2.33;;
59458;SDS011;45269;43.568;22.244;2023-07-28T12:27:55;1.90;;;1.80;;
59458;SDS011;45269;43.568;22.244;2023-07-28T12:30:20;2.22;;;2.10;;
59458;SDS011;45269;43.568;22.244;2023-07-28T12:32:46;4.18;;;2.55;;
59458;SDS011;45269;43.568;22.244;2023-07-28T12:35:12;2.75;;;2.10;;
59458;SDS011;45269;43.568;22.244;2023-07-28T12:37:37;3.33;;;2.53;;
59458;SDS011;45269;43.568;22.244;2023-07-28T12:40:03;3.13;;;2.28;;
59458;SDS011;45269;43.568;22.244;2023-07-28T12:42:30;3.50;;;1.95;;
59458;SDS011;45269;43.568;22.244;2023-07-28T12:44:55;2.20;;;2.00;;
59458;SDS011;45269;43.568;22.244;2023-07-28T12:47:21;2.65;;;2.10;;
59458;SDS011;45269;43.568;22.244;2023-07-28T12:49:46;3.63;;;2.40;;
59458;SDS011;45269;43.568;22.244;2023-07-28T12:52:11;1.92;;;1.83;;
59458;SDS011;45269;43.568;22.244;2023-07-28T12:54:37;4.25;;;2.40;;
59458;SDS011;45269;43.568;22.244;2023-07-28T12:57:03;3.63;;;2.20;;
59458;SDS011;45269;43.568;22.244;2023-07-28T12:59:28;2.50;;;2.30;;
59458;SDS011;45269;43.568;22.244;2023-07-28T13:01:54;2.75;;;2.53;;
59458;SDS011;45269;43.568;22.244;2023-07-28T13:04:20;2.70;;;2.50;;
59458;SDS011;45269;43.568;22.244;2023-07-28T13:06:45;2.20;;;2.00;;
59458;SDS011;45269;43.568;22.244;2023-07-28T13:09:10;2.55;;;2.20;;
59458;SDS011;45269;43.568;22.244;2023-07-28T13:11:36;2.30;;;2.10;;
59458;SDS011;45269;43.568;22.244;2023-07-28T13:14:01;2.15;;;2.05;;
59458;SDS011;45269;43.568;22.244;2023-07-28T13:16:27;2.10;;;2.00;;
59458;SDS011;45269;43.568;22.244;2023-07-28T13:18:52;2.90;;;2.28;;
59458;SDS011;45269;43.568;22.244;2023-07-28T13:21:17;2.85;;;2.42;;
59458;SDS011;45269;43.568;22.244;2023-07-28T13:23:43;3.85;;;2.38;;
59458;SDS011;45269;43.568;22.244;2023-07-28T13:26:08;2.55;;;2.33;;
59458;SDS011;45269;43.568;22.244;2023-07-28T13:28:33;2.67;;;2.47;;
59458;SDS011;45269;43.568;22.244;2023-07-28T13:31:02;4.43;;;2.25;;
59458;SDS011;45269;43.568;22.244;2023-07-28T13:33:28;2.65;;;2.40;;
59458;SDS011;45269;43.568;22.244;2023-07-28T13:35:53;3.03;;;2.25;;
59458;SDS011;45269;43.568;22.244;2023-07-28T13:38:18;2.70;;;2.20;;
59458;SDS011;45269;43.568;22.244;2023-07-28T13:40:44;2.30;;;2.20;;
59458;SDS011;45269;43.568;22.244;2023-07-28T13:43:09;2.30;;;2.10;;
59458;SDS011;45269;43.568;22.244;2023-07-28T13:45:35;2.75;;;2.22;;
59458;SDS011;45269;43.568;22.244;2023-07-28T13:48:00;2.45;;;2.00;;
59458;SDS011;45269;43.568;22.244;2023-07-28T13:50:25;2.08;;;1.98;;
59458;SDS011;45269;43.568;22.244;2023-07-28T13:52:51;2.30;;;2.10;;
59458;SDS011;45269;43.568;22.244;2023-07-28T13:55:16;2.33;;;2.13;;
59458;SDS011;45269;43.568;22.244;2023-07-28T13:57:41;2.30;;;2.10;;
59458;SDS011;45269;43.568;22.244;2023-07-28T14:00:07;4.82;;;2.08;;
59458;SDS011;45269;43.568;22.244;2023-07-28T14:02:36;2.58;;;2.38;;
59458;SDS011;45269;43.568;22.244;2023-07-28T14:05:01;4.80;;;2.30;;
59458;SDS011;45269;43.568;22.244;2023-07-28T14:07:26;2.17;;;2.08;;
59458;SDS011;45269;43.568;22.244;2023-07-28T14:09:52;2.10;;;1.90;;
59458;SDS011;45269;43.568;22.244;2023-07-28T14:12:17;2.45;;;2.25;;
59458;SDS011;45269;43.568;22.244;2023-07-28T14:14:43;2.17;;;1.77;;
59458;SDS011;45269;43.568;22.244;2023-07-28T14:17:08;2.40;;;2.20;;
59458;SDS011;45269;43.568;22.244;2023-07-28T14:19:34;4.88;;;2.40;;
59458;SDS011;45269;43.568;22.244;2023-07-28T14:21:59;2.88;;;2.03;;
59458;SDS011;45269;43.568;22.244;2023-07-28T14:24:24;2.47;;;2.22;;
59458;SDS011;45269;43.568;22.244;2023-07-28T14:26:50;2.60;;;2.40;;
59458;SDS011;45269;43.568;22.244;2023-07-28T14:29:15;3.22;;;2.20;;